Details From PADQ - KODIAK
To PADU - UNALASKA
Flight Number -
Tags decoded
Created
Modified
Stats Distance 542 nm / 1,003 km
Max Altitude 0 ft / 0 m
Waypoints 6
Social Downloads 2
Likes 0
Share VATSIM

Download

Looking for another format? Having issues loading an existing format? Contact us
Advertisement - Login to hide

Notes

Requested: PADQ ODK PDN J623 CDB J115 DUT PADU

Route

PADQ ODK PDN CDB J115 DUT PADU

ID Type Via Altitude Latitude Longitude Leg Dist Tot Dist Heading (true) Name
O PADQ APT - 0 ft / 0 m 57.74963˚ -152.49288˚ - 0 nm - KODIAK
ODK VOR - 0 ft / 0 m 57.77503˚ -152.33983˚ 5 nm 5 nm 73° / 73° KODIAK VOR-DME
PDN NDB - 0 ft / 0 m 56.95428˚ -158.64756˚ 210 nm 215 nm 259° / 254° PORT HEIDEN NDB
CDB VOR - 0 ft / 0 m 55.26739˚ -162.77425˚ 171 nm 386 nm 235° / 232° COLD BAY VORTAC
DUT NDB J115 (AWY-HI) 0 ft / 0 m 53.90514˚ -166.54786˚ 154 nm 541 nm 240° / 237° DUTCH HARBOR NDB
O PADU APT - 0 ft / 0 m 53.89907˚ -166.54506˚ 0 nm 541 nm 165° / 165° UNALASKA

Altitude Profile

Advertisement - Login to hide

Weather


0- 5 10 15 20 25 30 35+ Temperature / ° C

Clouds and Precipitation
Forecast for 2017-12-14 06:00 UTC. Updated an hour ago

Ground ~20,000 ft ~40,000 ft Winds

PADQ

Details ICAO PADQ (ADQ)
Name KODIAK
Region USA (Alaska)
Timezone America/Anchorage (UTC-9.0)
Stats Elevation 78 ft / 24 m (AMSL)
Location 57.749632° -152.492882°
Runways 3
Magnetic Variation 14.890° E

METAR

PADQ 140353Z 32003KT 10SM CLR 00/M02 A2967

Decode

TAF

PADQ 132331Z 1400/1424 19008KT P6SM SCT045 BKN070 FM141000 12005KT P6SM OVC025

Decode

Departure Runways

ID Width Length Bearing (true) Bearing (mag) Surface Threshold Offset Overrun Length
07 151 ft / 46 m 7,517 ft / 2,291 m 92.00° 77.11° Asphalt 1,129 ft / 344 m 0 ft / 0 m
11 151 ft / 46 m 5,385 ft / 1,641 m 127.07° 112.18° Asphalt 440 ft / 134 m 0 ft / 0 m
18 151 ft / 46 m 5,004 ft / 1,525 m 202.31° 187.42° Asphalt 0 ft / 0 m 0 ft / 0 m
25 151 ft / 46 m 7,517 ft / 2,291 m 272.03° 257.14° Asphalt 0 ft / 0 m 0 ft / 0 m
29 151 ft / 46 m 5,385 ft / 1,641 m 307.09° 292.20° Asphalt 554 ft / 169 m 0 ft / 0 m
36 151 ft / 46 m 5,004 ft / 1,525 m 22.30° 7.41° Asphalt 0 ft / 0 m 0 ft / 0 m

PADU

Details ICAO PADU (DUT)
Name UNALASKA
Region USA (Alaska)
Timezone America/Adak (UTC-10.0)
Stats Elevation 22 ft / 7 m (AMSL)
Location 53.899070° -166.545064°
Runways 1
Magnetic Variation 9.126° E

METAR

PADU 140356Z AUTO 00000KT 10SM OVC030 M01/M04 A2959 RMK AO2 SLP024 T10111044 FZRANO

Decode

TAF

TAF AMD PADU 140003Z 1400/1424 VRB06KT P6SM VCSH SCT015 OVC050 FM140800 14008KT P6SM SCT050 FM141800 13014G22KT 4SM -RA SCT007 OVC015

Decode

Destination Runways

ID Width Length Bearing (true) Bearing (mag) Surface Threshold Offset Overrun Length
12 100 ft / 30 m 3,895 ft / 1,187 m 135.64° 126.51° Asphalt 100 ft / 30 m 0 ft / 0 m
30 100 ft / 30 m 3,895 ft / 1,187 m 315.65° 306.52° Asphalt 101 ft / 31 m 0 ft / 0 m

Popular Alternatives